Time;durP1;ratioP1;P1;durP2;ratioP2;P2;SDS_P1;SDS_P2;PMS_P1;PMS_P2;Temp;Humidity;BMP_temperature;BMP_pressure;BME280_temperature;BME280_humidity;BME280_pressure;Samples;Min_cycle;Max_cycle;Signal;HPM_P1;HPM_P2
2021/09/02 00:00:51;;;;;;;9.50;6.53;;;;;;;20.54;44.19;102383.28;5020570;28;20509;-78
2021/09/02 00:03:18;;;;;;;10.18;6.18;;;;;;;20.51;44.00;102373.34;5010258;28;20052;-78
2021/09/02 00:05:45;;;;;;;11.18;6.38;;;;;;;20.50;44.13;102378.03;5014059;28;20053;-78
2021/09/02 00:08:12;;;;;;;11.05;6.90;;;;;;;20.47;43.63;102377.41;5014095;28;20081;-78
2021/09/02 00:10:38;;;;;;;10.02;5.90;;;;;;;20.46;43.99;102367.38;5015554;28;20136;-79
2021/09/02 00:13:05;;;;;;;8.45;5.70;;;;;;;20.43;43.68;102371.25;5029513;28;20041;-78
2021/09/02 00:15:32;;;;;;;9.45;6.05;;;;;;;20.42;43.68;102369.50;5014869;28;20449;-78
2021/09/02 00:18:00;;;;;;;9.52;5.90;;;;;;;20.40;44.04;102360.50;5007678;28;20153;-78
2021/09/02 00:20:27;;;;;;;8.93;5.85;;;;;;;20.38;43.52;102362.50;5021975;28;20536;-78
2021/09/02 00:22:56;;;;;;;10.40;6.28;;;;;;;20.35;43.73;102362.75;5014047;28;20054;-79
2021/09/02 00:25:22;;;;;;;8.68;5.70;;;;;;;20.34;44.18;102362.91;5015286;28;20128;-79
2021/09/02 00:27:49;;;;;;;10.07;6.32;;;;;;;20.33;43.73;102366.63;4999531;28;20047;-79
2021/09/02 00:30:16;;;;;;;8.82;5.82;;;;;;;20.30;44.22;102361.34;5028311;28;20535;-79
2021/09/02 00:32:42;;;;;;;10.48;5.95;;;;;;;20.28;44.04;102361.47;5013666;28;20046;-79
2021/09/02 00:35:10;;;;;;;8.50;5.72;;;;;;;20.27;43.98;102353.31;5026601;28;20112;-79
2021/09/02 00:37:37;;;;;;;9.30;6.57;;;;;;;20.25;44.01;102352.59;5011909;28;20539;-79
2021/09/02 00:40:04;;;;;;;9.52;6.05;;;;;;;20.24;43.74;102354.47;5015274;28;20085;-79
2021/09/02 00:42:30;;;;;;;8.52;6.25;;;;;;;20.22;44.24;102358.38;5012223;28;20078;-79
2021/09/02 00:44:57;;;;;;;9.48;6.10;;;;;;;20.21;43.87;102351.09;5012975;28;20088;-74
2021/09/02 00:47:25;;;;;;;9.52;5.78;;;;;;;20.19;44.08;102350.34;5013939;28;20056;-73
2021/09/02 00:49:53;;;;;;;10.30;5.65;;;;;;;20.17;43.88;102353.25;5026239;28;20076;-73
2021/09/02 00:52:22;;;;;;;9.25;6.00;;;;;;;20.17;44.33;102355.13;5024063;28;20231;-73
2021/09/02 00:54:52;;;;;;;8.38;5.40;;;;;;;20.15;44.34;102346.97;5013548;28;20100;-73
2021/09/02 00:57:22;;;;;;;8.55;5.72;;;;;;;20.14;44.28;102350.72;5012588;28;20046;-73
2021/09/02 01:00:03;;;;;;;8.45;5.07;;;;;;;20.10;43.96;102355.63;5013152;28;20115;-73
2021/09/02 01:02:30;;;;;;;10.15;5.82;;;;;;;20.07;44.13;102355.00;5012728;28;20093;-73
2021/09/02 01:04:58;;;;;;;9.00;6.38;;;;;;;20.07;43.92;102349.50;5014399;28;20086;-73
2021/09/02 01:07:30;;;;;;;10.25;6.10;;;;;;;20.08;44.01;102356.78;5012678;28;20042;-73
2021/09/02 01:09:59;;;;;;;9.55;5.53;;;;;;;20.05;44.02;102349.63;5012020;28;20049;-73
2021/09/02 01:12:37;;;;;;;8.30;5.05;;;;;;;20.02;43.71;102348.97;5012032;28;20069;-73
2021/09/02 01:15:08;;;;;;;9.25;5.68;;;;;;;20.03;43.84;102345.22;5013054;28;20058;-73
2021/09/02 01:17:35;;;;;;;8.57;5.18;;;;;;;19.97;43.81;102352.13;5030280;28;20528;-73
2021/09/02 01:20:04;;;;;;;8.60;5.60;;;;;;;19.96;43.87;102347.63;5023172;28;20084;-73
2021/09/02 01:22:38;;;;;;;8.88;5.47;;;;;;;19.95;43.78;102343.09;5027333;28;20080;-73
2021/09/02 01:25:10;;;;;;;8.63;5.47;;;;;;;19.94;43.98;102340.47;5013557;28;20446;-73
2021/09/02 01:27:37;;;;;;;8.98;5.45;;;;;;;19.87;43.74;102345.63;5012032;28;20133;-73
2021/09/02 01:30:08;;;;;;;9.13;5.85;;;;;;;19.87;43.85;102342.88;5017076;28;20470;-73
2021/09/02 01:32:37;;;;;;;8.50;5.28;;;;;;;19.85;43.67;102352.28;5012583;28;20077;-73
2021/09/02 01:35:08;;;;;;;9.07;5.32;;;;;;;19.82;44.15;102360.78;5013469;28;20494;-73
2021/09/02 01:37:45;;;;;;;8.02;5.15;;;;;;;19.80;44.14;102349.91;5011706;28;20112;-73
2021/09/02 01:40:15;;;;;;;8.15;4.82;;;;;;;19.75;43.65;102353.03;5011993;28;20054;-73
2021/09/02 01:42:42;;;;;;;9.13;5.53;;;;;;;19.72;43.97;102357.91;5011972;28;20122;-73
2021/09/02 01:45:09;;;;;;;7.78;5.57;;;;;;;19.72;43.48;102352.41;5013359;28;20096;-73
2021/09/02 01:47:36;;;;;;;9.15;5.70;;;;;;;19.68;43.64;102350.91;5014247;28;20567;-73
2021/09/02 01:50:09;;;;;;;9.43;5.50;;;;;;;19.68;43.79;102342.66;5027486;28;20478;-73
2021/09/02 01:52:37;;;;;;;10.02;6.35;;;;;;;19.64;43.63;102346.63;5002296;28;20477;-73
2021/09/02 01:55:07;;;;;;;8.00;5.15;;;;;;;19.63;43.74;102344.88;5008168;28;20129;-72
2021/09/02 01:57:34;;;;;;;8.30;5.18;;;;;;;19.60;43.69;102340.47;5011314;28;20073;-73
2021/09/02 02:00:03;;;;;;;9.57;5.25;;;;;;;19.59;44.08;102340.63;5011520;28;20046;-73
2021/09/02 02:02:30;;;;;;;8.13;4.95;;;;;;;19.57;43.97;102345.38;5010837;28;20100;-73
2021/09/02 02:04:57;;;;;;;8.95;5.72;;;;;;;19.54;43.85;102342.88;5013128;28;20430;-73
2021/09/02 02:07:24;;;;;;;7.63;5.20;;;;;;;19.53;43.80;102338.34;5011572;28;20046;-73
2021/09/02 02:09:50;;;;;;;7.15;5.22;;;;;;;19.51;44.02;102337.63;5012007;28;20038;-73
2021/09/02 02:12:17;;;;;;;9.98;5.97;;;;;;;19.50;44.28;102335.88;5012331;28;20057;-73
2021/09/02 02:14:43;;;;;;;9.10;5.85;;;;;;;19.47;44.13;102336.97;5011988;28;20488;-73
2021/09/02 02:17:10;;;;;;;7.57;5.05;;;;;;;19.45;44.08;102335.31;5011314;28;20465;-73
2021/09/02 02:19:36;;;;;;;9.10;6.05;;;;;;;19.42;43.90;102332.81;5031623;28;20540;-73
2021/09/02 02:22:04;;;;;;;7.72;5.43;;;;;;;19.41;43.91;102339.34;5014444;28;20525;-73
2021/09/02 02:24:31;;;;;;;10.60;5.70;;;;;;;19.38;43.95;102327.56;5011730;28;20068;-73
2021/09/02 02:27:01;;;;;;;8.48;4.95;;;;;;;19.39;44.57;102332.06;5010800;28;20058;-73
2021/09/02 02:29:28;;;;;;;8.18;5.03;;;;;;;19.35;44.32;102340.72;5011482;28;20054;-72
2021/09/02 02:31:54;;;;;;;7.78;5.30;;;;;;;19.35;44.28;102340.72;5012170;28;20084;-72
2021/09/02 02:34:21;;;;;;;8.07;5.70;;;;;;;19.34;44.45;102334.31;5011787;28;20088;-73
2021/09/02 02:36:48;;;;;;;9.18;5.30;;;;;;;19.33;44.59;102335.31;5011260;28;20046;-73
2021/09/02 02:39:14;;;;;;;7.85;5.45;;;;;;;19.33;44.36;102337.19;5011802;28;20069;-73
2021/09/02 02:41:41;;;;;;;7.95;5.40;;;;;;;19.33;44.41;102335.31;5018879;28;20536;-73
2021/09/02 02:44:08;;;;;;;8.65;5.75;;;;;;;19.32;44.29;102339.06;5011539;28;21933;-73
2021/09/02 02:46:34;;;;;;;9.68;5.38;;;;;;;19.32;44.46;102329.94;5010854;28;20265;-73
2021/09/02 02:49:01;;;;;;;8.77;5.18;;;;;;;19.33;44.38;102331.69;5025904;28;20497;-72
2021/09/02 02:51:28;;;;;;;7.55;5.20;;;;;;;19.33;44.53;102326.19;5022118;28;20080;-73
2021/09/02 02:53:55;;;;;;;8.25;5.50;;;;;;;19.34;44.54;102325.19;4996870;28;20505;-73
2021/09/02 02:56:21;;;;;;;7.78;4.97;;;;;;;19.35;44.88;102324.19;5011086;28;20121;-73
2021/09/02 02:58:48;;;;;;;8.82;5.57;;;;;;;19.36;44.60;102331.41;5011133;28;20133;-73
2021/09/02 03:01:15;;;;;;;8.38;4.97;;;;;;;19.37;45.24;102325.78;5011596;28;20081;-73
2021/09/02 03:03:42;;;;;;;8.30;5.15;;;;;;;19.38;44.97;102321.16;5011214;28;20100;-72
2021/09/02 03:06:10;;;;;;;8.52;5.60;;;;;;;19.38;44.74;102315.66;5010814;28;20060;-73
2021/09/02 03:08:37;;;;;;;10.07;5.72;;;;;;;19.39;45.02;102321.03;5011272;28;20798;-73
2021/09/02 03:11:03;;;;;;;7.72;5.18;;;;;;;19.39;44.74;102315.53;5011457;28;20148;-73
2021/09/02 03:13:30;;;;;;;8.55;5.72;;;;;;;19.41;44.90;102325.56;5009710;28;20042;-73
2021/09/02 03:15:57;;;;;;;9.23;5.22;;;;;;;19.43;44.82;102324.44;5010972;28;20120;-73
2021/09/02 03:18:23;;;;;;;10.23;5.47;;;;;;;19.44;44.96;102326.16;5035343;28;20045;-73
2021/09/02 03:20:50;;;;;;;7.18;4.82;;;;;;;19.45;45.37;102321.53;5031253;28;20095;-72
2021/09/02 03:23:17;;;;;;;8.13;5.40;;;;;;;19.47;45.25;102322.28;5010882;28;20583;-72
2021/09/02 03:25:44;;;;;;;7.95;4.70;;;;;;;19.47;45.12;102317.69;5010829;28;20085;-73
2021/09/02 03:28:10;;;;;;;7.93;5.22;;;;;;;19.48;44.94;102321.34;5010073;28;20144;-73
2021/09/02 03:30:37;;;;;;;7.18;5.35;;;;;;;19.48;44.85;102316.72;5010782;28;20129;-73
2021/09/02 03:33:03;;;;;;;8.57;5.35;;;;;;;19.49;44.91;102317.59;5010473;28;20050;-73
2021/09/02 03:35:30;;;;;;;8.23;4.82;;;;;;;19.50;44.96;102316.59;5011621;28;20069;-73
2021/09/02 03:37:56;;;;;;;8.60;5.05;;;;;;;19.50;44.79;102320.22;5009207;28;20074;-73
2021/09/02 03:40:23;;;;;;;9.52;5.32;;;;;;;19.52;44.95;102317.34;5010678;28;20133;-73
2021/09/02 03:42:50;;;;;;;8.85;5.20;;;;;;;19.51;44.83;102319.22;5010068;28;20870;-73
2021/09/02 03:45:16;;;;;;;9.35;5.53;;;;;;;19.53;44.87;102321.81;5011350;28;20045;-73
2021/09/02 03:47:47;;;;;;;10.48;5.50;;;;;;;19.56;44.99;102321.59;5015446;28;20042;-73
2021/09/02 03:50:16;;;;;;;8.48;5.20;;;;;;;19.54;44.93;102320.84;5030855;28;20056;-73
2021/09/02 03:52:43;;;;;;;8.30;5.00;;;;;;;19.56;45.28;102318.84;5018965;28;20575;-73
2021/09/02 03:55:11;;;;;;;7.35;4.75;;;;;;;19.56;44.88;102316.06;5011065;28;20073;-73
2021/09/02 03:57:39;;;;;;;9.23;5.40;;;;;;;19.56;45.02;102327.09;5009739;28;20077;-73
2021/09/02 04:00:08;;;;;;;9.02;5.95;;;;;;;19.56;44.96;102314.19;5009412;28;20096;-73
2021/09/02 04:02:35;;;;;;;9.63;5.28;;;;;;;19.55;45.16;102317.97;5008416;28;20247;-73
2021/09/02 04:05:03;;;;;;;8.02;5.63;;;;;;;19.56;45.14;102316.06;5009433;28;20049;-73
2021/09/02 04:07:31;;;;;;;8.52;5.60;;;;;;;19.54;45.45;102318.06;5007485;28;20045;-73
2021/09/02 04:09:58;;;;;;;8.40;5.47;;;;;;;19.54;45.28;102313.44;5009513;28;20123;-72
2021/09/02 04:12:24;;;;;;;8.63;4.97;;;;;;;19.54;45.44;102312.56;5009890;28;20050;-73
2021/09/02 04:14:52;;;;;;;8.95;5.50;;;;;;;19.53;45.20;102308.06;5009435;28;20462;-73
2021/09/02 04:17:18;;;;;;;8.57;5.43;;;;;;;19.55;44.88;102317.06;5018358;28;20042;-72
2021/09/02 04:19:45;;;;;;;10.23;5.53;;;;;;;19.53;45.34;102308.06;5029262;28;20069;-73
2021/09/02 04:22:12;;;;;;;8.55;4.82;;;;;;;19.52;45.28;102307.16;5028091;28;20081;-73
2021/09/02 04:24:38;;;;;;;8.10;4.95;;;;;;;19.52;44.95;102306.31;5010219;28;20050;-73
2021/09/02 04:27:05;;;;;;;10.70;5.97;;;;;;;19.50;45.19;102300.06;5009881;28;20128;-73
2021/09/02 04:29:32;;;;;;;11.23;5.95;;;;;;;19.48;45.24;102304.81;5010101;28;20509;-72
2021/09/02 04:31:58;;;;;;;9.00;5.28;;;;;;;19.45;44.87;102299.50;5009567;28;20073;-72
2021/09/02 04:34:25;;;;;;;10.02;6.22;;;;;;;19.42;45.26;102303.41;5010340;28;20074;-73
2021/09/02 04:36:51;;;;;;;9.82;6.18;;;;;;;19.41;45.54;102307.16;5009889;28;20108;-73
2021/09/02 04:39:18;;;;;;;9.95;5.53;;;;;;;19.38;44.90;102300.00;5009859;28;20093;-73
2021/09/02 04:41:44;;;;;;;8.75;5.47;;;;;;;19.37;45.35;102302.88;5010458;28;20058;-73
2021/09/02 04:44:11;;;;;;;8.85;5.65;;;;;;;19.37;45.04;102300.13;5010068;28;20138;-73
2021/09/02 04:46:38;;;;;;;10.20;5.82;;;;;;;19.35;45.12;102299.41;5009309;28;20133;-73
2021/09/02 04:49:04;;;;;;;8.13;5.18;;;;;;;19.34;45.27;102297.63;5018052;28;20087;-73
2021/09/02 04:51:31;;;;;;;9.45;5.45;;;;;;;19.33;45.12;102305.03;5031520;28;20150;-74
2021/09/02 04:53:57;;;;;;;9.13;6.10;;;;;;;19.32;45.40;102297.75;5013848;28;20049;-72
2021/09/02 04:56:24;;;;;;;9.57;5.43;;;;;;;19.31;45.38;102307.03;5011964;28;20132;-73
2021/09/02 04:58:51;;;;;;;9.32;6.03;;;;;;;19.31;45.27;102303.38;5012472;28;20080;-73
2021/09/02 05:01:18;;;;;;;11.23;5.82;;;;;;;19.29;45.40;102295.25;5013566;28;20046;-73
2021/09/02 05:03:45;;;;;;;10.15;5.57;;;;;;;19.28;45.23;102296.25;5013656;28;20100;-73
2021/09/02 05:06:12;;;;;;;9.10;5.47;;;;;;;19.28;45.20;102292.59;5012750;28;20141;-73
2021/09/02 05:08:38;;;;;;;9.00;5.47;;;;;;;19.26;45.29;102290.00;5024760;28;20073;-73
2021/09/02 05:11:05;;;;;;;8.18;5.53;;;;;;;19.25;45.28;102285.50;4994073;28;20363;-73
2021/09/02 05:13:32;;;;;;;9.15;5.90;;;;;;;19.24;45.00;102288.38;5000242;28;20390;-73
2021/09/02 05:15:58;;;;;;;11.20;5.93;;;;;;;19.23;45.40;102286.59;5012466;28;20100;-73
2021/09/02 05:18:25;;;;;;;10.48;5.95;;;;;;;19.23;45.55;102284.72;5019449;28;20100;-73
2021/09/02 05:20:52;;;;;;;8.65;5.78;;;;;;;19.22;45.50;102285.72;5033497;28;20840;-73
2021/09/02 05:23:19;;;;;;;9.93;5.57;;;;;;;19.21;45.40;102285.84;5028490;28;20077;-73
2021/09/02 05:25:45;;;;;;;9.07;5.80;;;;;;;19.21;44.94;102283.09;5011715;28;20120;-73
2021/09/02 05:28:12;;;;;;;9.45;6.00;;;;;;;19.22;45.60;102287.59;5012753;28;20133;-73
2021/09/02 05:30:38;;;;;;;10.23;6.18;;;;;;;19.21;45.21;102286.72;5013355;28;20077;-72
2021/09/02 05:33:05;;;;;;;9.35;5.50;;;;;;;19.21;45.39;102288.59;5012108;28;20053;-73
2021/09/02 05:35:32;;;;;;;9.10;5.50;;;;;;;19.22;45.34;102291.22;4993472;28;20108;-72
2021/09/02 05:37:58;;;;;;;9.60;5.88;;;;;;;19.22;45.43;102301.38;4992284;28;20549;-73
2021/09/02 05:40:25;;;;;;;8.50;5.55;;;;;;;19.22;45.07;102299.50;5012238;28;20299;-73
2021/09/02 05:42:52;;;;;;;10.43;6.10;;;;;;;19.22;45.13;102298.63;5012580;28;20045;-73
2021/09/02 05:45:18;;;;;;;10.23;6.20;;;;;;;19.23;45.45;102300.38;5013034;28;20081;-73
2021/09/02 05:47:45;;;;;;;8.43;5.30;;;;;;;19.22;45.28;102309.63;5016081;28;20072;-73
2021/09/02 05:50:12;;;;;;;9.57;5.70;;;;;;;19.23;45.51;102304.00;5025835;28;20053;-73
2021/09/02 05:52:38;;;;;;;9.30;5.95;;;;;;;19.22;45.33;102298.63;5021370;28;20069;-73
2021/09/02 05:55:06;;;;;;;13.48;6.07;;;;;;;19.21;45.35;102299.63;5011906;28;20119;-73
2021/09/02 05:57:33;;;;;;;9.57;5.82;;;;;;;19.19;45.87;102296.97;5010690;28;20060;-73
2021/09/02 05:59:59;;;;;;;10.13;5.82;;;;;;;19.16;46.48;102293.59;5012671;28;20054;-73
2021/09/02 06:02:26;;;;;;;10.57;6.57;;;;;;;19.14;45.74;102298.34;5011463;28;20050;-73
2021/09/02 06:04:53;;;;;;;9.70;6.13;;;;;;;19.12;45.67;102303.97;5012343;28;20065;-74
2021/09/02 06:07:19;;;;;;;10.07;6.00;;;;;;;19.10;46.06;102303.25;5011324;28;20056;-73
2021/09/02 06:09:46;;;;;;;9.93;5.68;;;;;;;19.10;46.13;102305.13;5011961;28;20049;-73
2021/09/02 06:12:13;;;;;;;9.32;5.45;;;;;;;19.10;45.78;102310.63;5012112;28;20096;-73
2021/09/02 06:14:39;;;;;;;9.27;6.60;;;;;;;19.10;46.04;102311.50;5012078;28;20046;-73
2021/09/02 06:17:06;;;;;;;10.35;6.65;;;;;;;19.10;46.51;102303.25;5011875;28;20046;-73
2021/09/02 06:19:33;;;;;;;10.60;6.20;;;;;;;19.12;46.23;102303.09;5018997;28;20248;-73
2021/09/02 06:22:00;;;;;;;8.85;5.68;;;;;;;19.14;46.64;102314.88;5017803;28;20046;-72
2021/09/02 06:24:27;;;;;;;10.75;5.97;;;;;;;19.16;46.74;102310.13;4998693;28;20551;-72
2021/09/02 06:26:53;;;;;;;8.50;5.40;;;;;;;19.17;46.78;102312.75;5010748;28;20497;-73
2021/09/02 06:29:20;;;;;;;8.50;5.65;;;;;;;19.19;46.82;102313.50;5011894;28;20574;-73
2021/09/02 06:31:47;;;;;;;8.48;5.80;;;;;;;19.22;46.67;102313.25;5010751;28;20069;-73
2021/09/02 06:34:13;;;;;;;8.05;5.30;;;;;;;19.24;46.49;102314.03;5011821;28;20084;-73
2021/09/02 06:36:40;;;;;;;11.40;6.20;;;;;;;19.27;46.91;102302.75;5011058;28;20049;-73
2021/09/02 06:39:09;;;;;;;9.32;6.32;;;;;;;19.30;46.72;102304.38;5011758;28;20168;-73
2021/09/02 06:41:36;;;;;;;10.70;5.53;;;;;;;19.33;47.05;102309.66;5011362;28;20470;-73
2021/09/02 06:44:03;;;;;;;10.23;6.60;;;;;;;19.37;46.87;102314.78;5011651;28;20046;-73
2021/09/02 06:46:30;;;;;;;10.48;6.22;;;;;;;19.38;47.40;102305.53;5010866;28;20504;-73
2021/09/02 06:48:57;;;;;;;9.40;6.32;;;;;;;19.44;47.05;102312.41;5025538;28;20041;-73
2021/09/02 06:51:23;;;;;;;11.30;6.68;;;;;;;19.48;46.97;102313.94;5014221;28;20125;-73
2021/09/02 06:53:50;;;;;;;9.80;6.35;;;;;;;19.50;47.16;102309.19;4996042;28;20081;-73
2021/09/02 06:56:16;;;;;;;10.52;6.35;;;;;;;19.55;46.86;102311.56;5010525;28;20134;-73
2021/09/02 06:58:44;;;;;;;11.57;6.20;;;;;;;19.58;47.53;102322.34;5010775;28;20427;-73
2021/09/02 07:01:13;;;;;;;12.45;7.13;;;;;;;19.62;47.38;102315.56;5011312;28;20112;-73
2021/09/02 07:03:41;;;;;;;11.10;6.05;;;;;;;19.65;47.25;102315.34;5011568;28;20080;-73
2021/09/02 07:06:08;;;;;;;9.80;6.18;;;;;;;19.68;47.51;102318.69;5010331;28;20049;-73
2021/09/02 07:08:36;;;;;;;11.90;6.68;;;;;;;19.71;47.74;102331.34;5011657;28;20112;-73
2021/09/02 07:11:04;;;;;;;10.05;5.65;;;;;;;19.75;47.71;102325.47;5017194;28;20248;-73
2021/09/02 07:13:31;;;;;;;12.70;6.70;;;;;;;19.79;47.77;102328.84;5010955;28;20493;-73
2021/09/02 07:15:58;;;;;;;10.63;5.97;;;;;;;19.83;47.29;102333.13;5010387;28;20421;-73
2021/09/02 07:18:25;;;;;;;9.55;5.93;;;;;;;19.88;47.83;102332.72;5018588;28;20042;-73
2021/09/02 07:20:51;;;;;;;10.18;6.10;;;;;;;19.94;48.00;102340.47;5021231;28;20088;-73
2021/09/02 07:23:18;;;;;;;10.43;5.75;;;;;;;19.99;47.86;102341.00;5007504;28;20455;-71
2021/09/02 07:25:45;;;;;;;9.85;6.03;;;;;;;20.05;47.64;102341.34;5008836;28;20057;-72
2021/09/02 07:28:12;;;;;;;12.18;6.47;;;;;;;20.11;48.02;102331.69;5008561;28;20089;-72
2021/09/02 07:30:40;;;;;;;9.95;6.00;;;;;;;20.18;47.81;102334.81;5007654;28;20123;-71
2021/09/02 07:33:07;;;;;;;11.23;6.22;;;;;;;20.23;47.37;102327.91;5008310;28;20041;-72
2021/09/02 07:35:34;;;;;;;10.20;6.20;;;;;;;20.28;47.68;102331.13;5009594;28;20045;-72
2021/09/02 07:38:00;;;;;;;11.65;6.50;;;;;;;20.33;47.91;102334.41;5007969;28;20088;-72
2021/09/02 07:40:28;;;;;;;10.20;6.30;;;;;;;20.40;47.48;102332.91;5008815;28;20127;-72
2021/09/02 07:42:55;;;;;;;10.20;6.68;;;;;;;20.47;47.37;102342.41;5006279;28;20073;-72
2021/09/02 07:45:21;;;;;;;9.68;5.97;;;;;;;20.56;47.32;102340.75;5008290;28;20085;-72
2021/09/02 07:47:48;;;;;;;12.27;6.82;;;;;;;20.63;47.42;102343.84;5011627;28;20091;-72
2021/09/02 07:50:15;;;;;;;8.73;5.63;;;;;;;20.70;47.37;102345.94;5028359;28;20132;-72
2021/09/02 07:52:42;;;;;;;12.77;6.97;;;;;;;20.79;47.24;102358.97;4997929;28;20050;-72
2021/09/02 07:55:10;;;;;;;9.95;6.60;;;;;;;20.89;47.08;102346.13;5004844;28;20058;-72
2021/09/02 07:57:42;;;;;;;10.82;5.97;;;;;;;20.96;47.46;102345.59;5007328;28;20052;-72
2021/09/02 08:00:09;;;;;;;9.20;5.57;;;;;;;21.00;46.89;102342.41;5008978;28;20841;-72
2021/09/02 08:02:36;;;;;;;10.57;6.28;;;;;;;21.09;46.91;102340.72;5008193;28;20073;-72
2021/09/02 08:05:03;;;;;;;10.27;5.90;;;;;;;21.17;47.11;102346.47;5009328;28;20568;-72
2021/09/02 08:07:30;;;;;;;11.95;6.40;;;;;;;21.22;46.70;102339.56;5006995;28;20100;-72
2021/09/02 08:09:57;;;;;;;10.20;6.63;;;;;;;21.27;46.92;102345.53;5008898;28;20097;-72
2021/09/02 08:12:23;;;;;;;9.93;6.78;;;;;;;21.33;47.10;102351.56;5008556;28;20104;-72
2021/09/02 08:14:50;;;;;;;10.52;5.97;;;;;;;21.38;46.87;102347.38;5007373;28;20054;-72
2021/09/02 08:17:16;;;;;;;8.80;5.07;;;;;;;21.44;46.97;102340.41;5008012;28;20057;-72
2021/09/02 08:19:43;;;;;;;9.60;5.90;;;;;;;21.49;46.59;102335.38;5027693;28;20100;-72
2021/09/02 08:22:10;;;;;;;10.07;6.90;;;;;;;21.56;46.29;102337.44;5007281;28;20069;-72
2021/09/02 08:24:36;;;;;;;10.90;6.68;;;;;;;21.63;46.60;102335.00;4989238;28;20383;-72
2021/09/02 08:27:03;;;;;;;9.93;6.28;;;;;;;21.71;46.43;102334.28;5001153;28;20057;-72
2021/09/02 08:29:29;;;;;;;9.43;6.22;;;;;;;21.80;46.81;102336.22;5022603;28;20045;-72
2021/09/02 08:31:56;;;;;;;8.77;5.63;;;;;;;21.88;46.52;102336.41;5013009;28;20082;-72
2021/09/02 08:34:23;;;;;;;11.18;6.82;;;;;;;21.96;46.58;102325.50;5011265;28;20084;-72
2021/09/02 08:36:49;;;;;;;11.75;6.45;;;;;;;22.01;46.42;102324.09;5011771;28;20046;-72
2021/09/02 08:39:16;;;;;;;8.73;5.65;;;;;;;22.11;46.41;102326.91;5011895;28;20088;-72
2021/09/02 08:41:43;;;;;;;12.20;6.55;;;;;;;22.19;45.93;102331.72;5012147;28;20072;-72
2021/09/02 08:44:09;;;;;;;11.48;6.68;;;;;;;22.26;46.09;102332.91;5012777;28;20073;-72
2021/09/02 08:46:36;;;;;;;11.43;6.72;;;;;;;22.31;45.40;102328.69;5010958;28;20049;-72
2021/09/02 08:49:04;;;;;;;9.00;5.50;;;;;;;22.37;45.24;102341.09;5026098;28;20829;-72
2021/09/02 08:51:31;;;;;;;10.48;6.70;;;;;;;22.41;45.40;102334.22;5030827;28;20133;-72
2021/09/02 08:53:58;;;;;;;8.80;5.50;;;;;;;22.47;45.94;102330.03;5011985;28;20401;-72
2021/09/02 08:56:25;;;;;;;10.38;5.75;;;;;;;22.54;45.62;102332.06;5011330;28;20066;-72
2021/09/02 08:58:51;;;;;;;8.93;5.40;;;;;;;22.61;46.05;102340.66;5011881;28;20127;-72
2021/09/02 09:01:18;;;;;;;9.10;5.20;;;;;;;22.68;45.84;102334.41;5011683;28;20069;-72
2021/09/02 09:03:49;;;;;;;7.78;4.85;;;;;;;22.82;45.33;102338.66;5011721;28;20045;-72
2021/09/02 09:06:29;;;;;;;8.15;5.38;;;;;;;22.89;45.05;102334.31;5009768;28;20080;-72
2021/09/02 09:08:56;;;;;;;9.60;5.68;;;;;;;22.97;45.50;102328.03;5011623;28;20417;-72
2021/09/02 09:11:30;;;;;;;8.32;4.55;;;;;;;23.09;45.43;102336.00;5011669;28;20065;-72
2021/09/02 09:14:11;;;;;;;9.32;5.55;;;;;;;23.19;44.30;102330.47;5011566;28;20049;-72
2021/09/02 09:16:51;;;;;;;10.45;5.78;;;;;;;23.26;43.77;102331.63;5009554;28;20046;-72
2021/09/02 09:19:51;;;;;;;8.38;4.95;;;;;;;23.29;44.61;102331.31;5027402;28;20405;-72
2021/09/02 09:22:20;;;;;;;9.18;4.85;;;;;;;23.37;44.91;102341.66;5020693;28;20499;-72
2021/09/02 09:24:51;;;;;;;10.43;5.25;;;;;;;23.47;44.67;102325.88;5011735;28;20107;-72
2021/09/02 09:27:31;;;;;;;7.70;4.88;;;;;;;23.54;44.20;102328.94;5010965;28;20129;-72
2021/09/02 09:30:11;;;;;;;10.25;4.88;;;;;;;23.63;43.82;102334.47;5011240;28;20265;-72
2021/09/02 09:32:48;;;;;;;8.82;4.75;;;;;;;23.74;44.08;102337.03;5010782;28;20074;-72
2021/09/02 09:35:23;;;;;;;6.80;4.60;;;;;;;23.82;44.49;102334.38;5011601;28;20096;-72
2021/09/02 09:38:12;;;;;;;8.55;4.85;;;;;;;23.95;44.15;102325.72;5008209;28;20493;-72
2021/09/02 09:40:41;;;;;;;10.30;4.90;;;;;;;24.05;44.50;102331.22;5011718;28;20065;-72
2021/09/02 09:43:14;;;;;;;7.90;4.43;;;;;;;24.17;43.83;102325.28;5010314;28;20450;-73
2021/09/02 09:45:40;;;;;;;;;;;;;;;23.97;44.64;102322.75;5012818;28;20104;-73
2021/09/02 09:48:19;;;;;;;8.35;4.90;;;;;;;24.37;42.97;102316.88;5011139;28;19952;-73
2021/09/02 09:51:10;;;;;;;8.00;4.45;;;;;;;24.47;42.91;102315.75;5016662;28;20060;-73
2021/09/02 09:53:39;;;;;;;9.05;4.97;;;;;;;24.57;43.06;102313.78;5011346;28;20089;-73
2021/09/02 09:56:06;;;;;;;8.25;5.13;;;;;;;24.65;43.00;102310.19;5010202;28;20481;-73
2021/09/02 09:58:33;;;;;;;7.80;4.82;;;;;;;24.68;42.34;102315.44;5010417;28;20131;-73
2021/09/02 10:01:02;;;;;;;8.23;5.13;;;;;;;24.75;42.40;102312.91;5009544;28;20057;-73
2021/09/02 10:03:31;;;;;;;8.82;5.05;;;;;;;24.80;42.29;102307.72;5010206;28;20492;-73
2021/09/02 10:06:06;;;;;;;8.25;4.97;;;;;;;24.86;41.92;102315.44;5009593;28;20057;-74
2021/09/02 10:08:37;;;;;;;8.43;4.53;;;;;;;24.91;42.42;102301.97;5010229;28;20497;-73
2021/09/02 10:11:06;;;;;;;7.63;4.50;;;;;;;24.97;43.26;102310.53;5010586;28;20049;-73
2021/09/02 10:13:33;;;;;;;9.10;4.95;;;;;;;25.09;42.55;102305.59;5009929;28;20835;-73
2021/09/02 10:16:01;;;;;;;7.57;4.70;;;;;;;25.20;42.27;102305.31;5009982;28;20063;-73
2021/09/02 10:18:30;;;;;;;6.40;3.95;;;;;;;25.30;41.87;102308.84;5017443;28;20100;-73
2021/09/02 10:21:10;;;;;;;7.88;4.38;;;;;;;25.41;41.67;102296.59;5029858;28;20049;-73
2021/09/02 10:23:37;;;;;;;6.15;4.40;;;;;;;25.46;42.14;102291.41;5024142;28;20189;-73
2021/09/02 10:26:04;;;;;;;8.27;4.47;;;;;;;25.56;41.93;102294.94;5009431;28;20093;-73
2021/09/02 10:28:36;;;;;;;7.72;4.68;;;;;;;25.69;40.50;102298.19;5008881;28;20096;-72
2021/09/02 10:31:20;;;;;;;7.93;4.57;;;;;;;25.74;41.09;102293.00;5009789;28;20077;-73
2021/09/02 10:33:48;;;;;;;9.02;4.97;;;;;;;25.82;41.06;102297.72;5009719;28;20046;-72
2021/09/02 10:36:14;;;;;;;7.15;5.03;;;;;;;25.90;41.00;102289.41;5009327;28;20508;-73
2021/09/02 10:38:48;;;;;;;8.88;4.82;;;;;;;26.01;39.94;102296.59;5009628;28;20146;-73
2021/09/02 10:41:36;;;;;;;7.38;5.05;;;;;;;26.04;39.92;102285.97;5009919;28;20420;-72
2021/09/02 10:44:04;;;;;;;10.00;4.72;;;;;;;26.09;40.30;102288.25;5010018;28;20042;-72
2021/09/02 10:46:32;;;;;;;9.43;5.32;;;;;;;26.14;39.99;102285.81;5009260;28;20053;-72
2021/09/02 10:49:20;;;;;;;6.70;4.93;;;;;;;26.19;39.14;102285.34;5018270;28;20066;-72
2021/09/02 10:51:48;;;;;;;7.57;4.93;;;;;;;26.23;39.38;102286.72;4993322;28;20042;-72
2021/09/02 10:54:15;;;;;;;7.25;4.65;;;;;;;26.27;39.54;102271.47;5009669;28;20053;-73
2021/09/02 10:56:58;;;;;;;7.18;4.32;;;;;;;26.34;38.65;102272.53;5008907;28;20076;-72
2021/09/02 10:59:35;;;;;;;7.25;4.22;;;;;;;26.37;38.58;102264.69;5012396;28;20065;-72
2021/09/02 11:02:03;;;;;;;5.70;3.97;;;;;;;26.37;39.45;102263.81;5009408;28;20073;-72
2021/09/02 11:04:31;;;;;;;6.68;4.45;;;;;;;26.42;39.50;102261.38;5009397;28;20092;-72
2021/09/02 11:06:57;;;;;;;7.15;4.57;;;;;;;26.45;39.08;102261.91;5007749;28;20765;-72
2021/09/02 11:09:34;;;;;;;6.60;4.32;;;;;;;26.53;37.99;102255.47;5009111;28;20127;-73
2021/09/02 11:12:04;;;;;;;6.80;4.25;;;;;;;26.55;38.74;102250.59;5009380;28;20100;-73
2021/09/02 11:14:39;;;;;;;6.70;4.40;;;;;;;26.63;37.85;102256.16;5009479;28;20046;-73
2021/09/02 11:17:07;;;;;;;6.43;4.03;;;;;;;26.66;38.60;102261.41;5013870;28;20397;-72
2021/09/02 11:19:39;;;;;;;6.00;4.38;;;;;;;26.73;38.19;102253.22;5022917;28;20501;-73
2021/09/02 11:22:17;;;;;;;8.18;3.95;;;;;;;26.77;38.42;102254.59;5029404;28;20057;-72
2021/09/02 11:24:48;;;;;;;6.15;4.13;;;;;;;26.80;38.66;102246.78;5020967;28;20121;-73
2021/09/02 11:27:32;;;;;;;6.88;4.10;;;;;;;26.87;37.93;102246.94;5016267;28;20314;-73
2021/09/02 11:30:16;;;;;;;6.13;3.72;;;;;;;26.93;38.17;102249.06;5020673;28;20100;-72